Terminal Aerodrome Forecast
Issued by NWS Cleveland, OH

Home | Current Version | Previous Version | Graphics & Text | Print | Product List | Glossary On
Versions: 1 2 3 4 5 6 7 8 9 10 11 12 13 14 15 16 17 18 19 20 21 22 23 24 25 26 27 28 29 30 31 32 33 34 35 36
745
FTUS41 KCLE 240539
TAFCLE
TAF
KCLE 240539Z 2406/2512 31004KT P6SM SCT006 OVC012
     FM240900 VRB03KT P6SM OVC005
     FM241500 05005KT 6SM -RA SCT005 OVC012
     FM242100 06007KT P6SM VCSH SCT005 OVC012
     FM250200 12010KT 2SM -RA BR OVC003
     FM250600 16014G22KT 5SM -RA BKN006 OVC012
     FM251100 21015G30KT P6SM BKN015 OVC045=

USA.gov is the U.S. government's official web portal to all federal, state and local government web resources and services.